Thursday, April 17, 2014
03:54 UTC
  |  Log In   |  Register Free
Airport Search:

Williamsburg-Jamestown Airport
(KJGG)

Williamsburg-Jamestown Airport Diagram
No Airport Diagram Available

FAA data valid effective April 3, 2014 until May 29, 2014 (unless otherwise noted).

 
 
 
 
 
 
 
 
 
 
 
 
 
 

Current Aviation Weather for Williamsburg-Jamestown Airport (KJGG)

The most recent METAR observation for KJGG was updated at: 0235 UTC
METAR Summary (Translated METAR)
KJGG
170235Z AUTO 00000KT 10SM CLR 04/00 A3051 RMK AO1
KFAF
(8.2 nm SE from KJGG)
170258Z AUTO 00000KT 10SM CLR 04/01 A3049 RMK AO2 SLP328 T00440014 51017 $
TAF Summary (Translated TAF)
KFAF
(8.2 nm SE from KJGG)
1618/1800 03010G15KT 9999 SKC QNH3038INS BECMG 1700/1701 06006KT 9999 SKC QNH3044INS BECMG 1708/1709 07006KT 9999 SCT015 BKN020 QNH3050INS BECMG 1711/1712 06012G18KT 9999 SCT015 BKN020 QNH3049INS BECMG 1717/1718 04010G15KT 9999 SCT020 QNH3048INS TX11/1621Z TN02/1711Z LAST NO AMDS AFT 1703 NEXT 1710
KPHF
(12.5 nm SE from KJGG)
161729Z 1618/1718 02011G18KT P6SM SKC FM162200 04012KT P6SM SKC FM170100 06007KT P6SM SKC FM171400 06011G18KT P6SM SCT040
  Airport Weather Conditions for KJGG

 Current Weather at JGG
39° F
Fair
North winds at 0.0 mph
JGG NOAA Radar

Pressure: 30.51 in
Humidity: 75%
Wind: Calm
Dew Point: 32.0°F
Visibility: 10.00 mi


Airport Weather Forecast for KJGG

Translated METAR and TAF for KJGG
Translated METAR for KJGG (0354 UTC 17 April 2014)
found at http://aviationweather.gov/adds/metars/
 
METAR text: KJGG 170335Z AUTO 00000KT 10SM CLR 04/01 A3052 RMK AO1
Conditions at: KJGG (WILLIAMSBURG , VA, US) observed 0335 UTC 17 April 2014
Temperature: 4.0°C (39°F)
Dewpoint: 1.0°C (34°F) [RH = 81%]
Pressure (altimeter): 30.52 inches Hg (1033.6 mb)
Winds: calm
Visibility: 10 or more miles (16+ km)
Ceiling: at least 12,000 feet AGL
Clouds: sky clear below 12,000 feet AGL
Weather: automated observation with no human augmentation;
there may or may not be significant weather present at this time
Translated TAF for KJGG

There is no translated TAF available for this airport

Find All Airport Services Find A Hotel Find A Rental Car Find A Golf Course Find A Restaurant $100 Hamburger



FBO's on the Field
FBO Company Facility Photos Services Transportation Aviation Fuel Prices: Prices include tax
Catering Weather Repair Courtesy Rental Type 100LL JetA JetA+ MOGAS 8087
 
Williamsburg-Jamestown

This FBO has not yet been rated
FS:Shell
Last Updated: Apr-02
Login to update fuel prices
SS:
Contact Williamsburg-JamestownMore FBO Information
 
Add another FBO Facility Photos Catering Weather Repair Courtesy Rental Type 100LL JetA JetA+ MOGAS 8087
Services Transportation Aviation Fuel Prices: Prices include tax


GlobalAir.com Airport Resource Center model-print
model-print
model-print
model-print